Estación Meteorológica Peña el Pijo (Robertgarden) [ 06/25/17 17:33:47 CEST ]

Fecha Hora Presion(HPa) Temp (°C) Humedad % Rocio (°C) Viento ( m/s) Direccion Lluvia 1Hora(mm) Lluvia 24H(mm) LLuvia Total(mm)
2017-May-19 01:01:49 1010.400 8.6 60 1.3         1390.83
2017-May-19 02:02:01 1010.600 7.3 63 0.7         1390.83
2017-May-19 03:04:10 1010.500 6.5 67 0.8         1390.83
2017-May-19 04:01:50 1010.100 6.5 67 0.8         1390.83
2017-May-19 05:01:37 1009.900 5.6 69 0.4         1390.83
2017-May-19 06:01:52 1009.900 4.7 72 0.1         1390.83
2017-May-19 07:01:57 1010.500 4.1 74 -0.1         1390.83
2017-May-19 08:01:54 1011.000 6.9 78 3.3         1390.83
2017-May-19 09:02:00 1011.200 12.8 59 5.0         1390.83
2017-May-19 10:01:42 1011.000 18.4 45 6.2         1390.83
2017-May-19 11:01:41 1010.800 23.1 35 6.7         1390.83
2017-May-19 12:01:52 1010.800 24.9 31 6.6         1390.83
2017-May-19 13:01:47 1010.700 25.6 28 5.6         1390.83
2017-May-19 14:01:34 1010.200 26.4 24 4.0         1390.83
2017-May-19 15:01:55 1010.100 28.3 20 3.2 0.5 NNW     1390.83
2017-May-19 16:01:33 1009.700 28.7 19 2.6         1390.83
2017-May-19 17:01:39 1009.600 28.5 18 1.5         1390.83
2017-May-19 18:01:44 1009.800 28.2 17 0.3         1390.83
2017-May-19 19:01:57 1009.700 25.6 17 -1.8         1390.83
2017-May-19 20:01:40 1010.100 23.9 21 0.2         1390.83
2017-May-19 21:01:56 1010.600 19.3 24 -2.0         1390.83
2017-May-19 22:01:47 1011.600 16.3 54 6.9         1390.83
2017-May-19 23:01:50 1012.400 14.4 62 7.2         1390.83

Temperatura Máxima:28°    Temperatura Mínima:
Presión Máxima:1012.400 Hpa    Presión Mínima:1009.600 Hpa


Volver